Glandorf, Ohio
Current Conditions -  °F | °C
As of 9:53 PM on Sunday 21 Dec 2014 (Local Time) from KFDY Reporting Station
Clear Clear  
Wind Chill: 23°   Ceiling: Unl
Heat Index: 29°   Visibility: 7mi
Dew Point: 22°   Wind: 6mph
Humidity: 75%   Direction: 100°E
Pressure: 30.17"   Gusts: NA
Location:  41.03°N, 84.08°W
Report Text: KFDY 220253Z AUTO 10005KT 7SM CLR M02/M06 A3017 RMK AO2 SLP222 T10171056 58008
Loading
Personal Weather Stations






























Interactive Weather Map New forecast layout! Learn more

10-Day Weather Forecast

Advertisements
Track Severe Weather on mobile